Hlavní strana
METAR-TAF:

METAR-TAF

Letiště :

Pécs, Maďarsko

zeměpisná šířka: 46-06N, zeměpisná délka: 018-14E, výška: 201 m

Aktuální stav počasí

Zpráva byla vytvořena před 28 minutami, v 06:45 UTC
Jihozápadní vítr 8 kt, proměnlivý mezi jihojihozápadním a západním
Teplota 26°C
Vlhkost vzduchu 54%
Tlak 1016 hPa
Viditelnost 10 km a více
Žádná oblačnost pod 1500 m, nevyskytují se cumulonimby.

METAR: LHPP 190645Z AUTO 23008KT 200V260 CAVOK 26/16 Q1016

Čas: 09:13 (07:13 UTC)

Předpověď počasí

Zpráva byla vytvořena před 1 hodinou a 58 minutami, v 05:15 UTC
Předpověď platná od 19 v 06 UTC do 19 v 15 UTC
vítr z různých směrů 3 kt
Viditelnost 10 km a více
Žádná oblačnost pod 1500 m, nevyskytují se cumulonimby.
Změna
od 19 v 06 UTC do 19 v 09 UTC
Jihozápadní vítr 8 kt

TAF: LHPP 190515Z 1906/1915 VRB03KT CAVOK BECMG 1906/1909 23008KT

Stav a předpovědi počasí z více než 4 000 letišť (zprávy METAR a TAF).

Červené a žluté tečky na mapě představují dostupné meteorologické stanice.

Když kurzor umístíte na tečku, zobrazí se název stanice.

Pak kliknutím zobrazíte stav a předpověď počasí.

Chcete-li změnit mapu, kliknutím na zelené tlačítko se znaménkem +mapu přiblížíte, kliknutím na zelené tlačítko se znaménkem – mapu oddálíte a kliknutím na zelené šipky přejdete na sousední mapy.


METAR-TAF: